sensor_id;sensor_type;location;lat;lon;timestamp;P1;durP1;ratioP1;P2;durP2;ratioP2
76292;SDS011;67256;51.154;4.164;2023-04-15T00:02:15;6.47;;;3.72;;
76292;SDS011;67256;51.154;4.164;2023-04-15T00:04:45;6.85;;;4.13;;
76292;SDS011;67256;51.154;4.164;2023-04-15T00:07:12;8.25;;;4.20;;
76292;SDS011;67256;51.154;4.164;2023-04-15T00:09:38;8.25;;;4.20;;
76292;SDS011;67256;51.154;4.164;2023-04-15T00:12:10;8.88;;;4.53;;
76292;SDS011;67256;51.154;4.164;2023-04-15T00:14:36;6.07;;;3.67;;
76292;SDS011;67256;51.154;4.164;2023-04-15T00:17:03;6.78;;;3.60;;
76292;SDS011;67256;51.154;4.164;2023-04-15T00:19:29;6.03;;;3.42;;
76292;SDS011;67256;51.154;4.164;2023-04-15T00:21:56;6.55;;;3.97;;
76292;SDS011;67256;51.154;4.164;2023-04-15T00:24:22;6.78;;;3.92;;
76292;SDS011;67256;51.154;4.164;2023-04-15T00:26:48;6.63;;;3.70;;
76292;SDS011;67256;51.154;4.164;2023-04-15T00:29:14;6.38;;;3.38;;
76292;SDS011;67256;51.154;4.164;2023-04-15T00:31:40;4.93;;;3.10;;
76292;SDS011;67256;51.154;4.164;2023-04-15T00:34:06;5.10;;;3.17;;
76292;SDS011;67256;51.154;4.164;2023-04-15T00:36:32;6.65;;;3.75;;
76292;SDS011;67256;51.154;4.164;2023-04-15T00:38:59;7.25;;;4.03;;
76292;SDS011;67256;51.154;4.164;2023-04-15T00:41:25;6.22;;;3.63;;
76292;SDS011;67256;51.154;4.164;2023-04-15T00:43:50;7.43;;;3.25;;
76292;SDS011;67256;51.154;4.164;2023-04-15T00:46:16;5.93;;;3.40;;
76292;SDS011;67256;51.154;4.164;2023-04-15T00:48:44;5.53;;;3.28;;
76292;SDS011;67256;51.154;4.164;2023-04-15T00:51:11;3.95;;;2.92;;
76292;SDS011;67256;51.154;4.164;2023-04-15T00:53:38;9.73;;;4.18;;
76292;SDS011;67256;51.154;4.164;2023-04-15T00:56:04;5.22;;;3.65;;
76292;SDS011;67256;51.154;4.164;2023-04-15T00:58:30;8.20;;;3.50;;
76292;SDS011;67256;51.154;4.164;2023-04-15T01:00:57;6.60;;;3.80;;
76292;SDS011;67256;51.154;4.164;2023-04-15T01:03:24;6.05;;;3.67;;
76292;SDS011;67256;51.154;4.164;2023-04-15T01:05:49;5.75;;;4.10;;
76292;SDS011;67256;51.154;4.164;2023-04-15T01:08:22;7.88;;;3.72;;
76292;SDS011;67256;51.154;4.164;2023-04-15T01:10:51;7.03;;;3.80;;
76292;SDS011;67256;51.154;4.164;2023-04-15T01:13:18;4.75;;;3.33;;
76292;SDS011;67256;51.154;4.164;2023-04-15T01:15:45;5.18;;;3.33;;
76292;SDS011;67256;51.154;4.164;2023-04-15T01:18:11;5.32;;;3.13;;
76292;SDS011;67256;51.154;4.164;2023-04-15T01:20:37;7.30;;;3.45;;
76292;SDS011;67256;51.154;4.164;2023-04-15T01:23:03;6.88;;;3.45;;
76292;SDS011;67256;51.154;4.164;2023-04-15T01:25:30;7.55;;;3.58;;
76292;SDS011;67256;51.154;4.164;2023-04-15T01:27:57;5.22;;;3.22;;
76292;SDS011;67256;51.154;4.164;2023-04-15T01:30:23;6.03;;;3.50;;
76292;SDS011;67256;51.154;4.164;2023-04-15T01:32:49;5.97;;;3.70;;
76292;SDS011;67256;51.154;4.164;2023-04-15T01:35:16;6.18;;;3.67;;
76292;SDS011;67256;51.154;4.164;2023-04-15T01:37:42;6.22;;;3.42;;
76292;SDS011;67256;51.154;4.164;2023-04-15T01:40:09;5.20;;;3.22;;
76292;SDS011;67256;51.154;4.164;2023-04-15T01:42:35;5.10;;;3.08;;
76292;SDS011;67256;51.154;4.164;2023-04-15T01:45:01;6.13;;;3.40;;
76292;SDS011;67256;51.154;4.164;2023-04-15T01:47:28;3.88;;;3.10;;
76292;SDS011;67256;51.154;4.164;2023-04-15T01:49:53;5.80;;;3.50;;
76292;SDS011;67256;51.154;4.164;2023-04-15T01:52:19;8.10;;;3.20;;
76292;SDS011;67256;51.154;4.164;2023-04-15T01:54:45;5.80;;;3.38;;
76292;SDS011;67256;51.154;4.164;2023-04-15T01:57:11;5.60;;;3.50;;
76292;SDS011;67256;51.154;4.164;2023-04-15T01:59:37;5.70;;;3.20;;
76292;SDS011;67256;51.154;4.164;2023-04-15T02:02:03;5.18;;;3.17;;
76292;SDS011;67256;51.154;4.164;2023-04-15T02:04:29;4.97;;;3.38;;
76292;SDS011;67256;51.154;4.164;2023-04-15T02:06:55;3.85;;;3.15;;
76292;SDS011;67256;51.154;4.164;2023-04-15T02:09:21;4.82;;;3.63;;
76292;SDS011;67256;51.154;4.164;2023-04-15T02:11:47;4.95;;;3.25;;
76292;SDS011;67256;51.154;4.164;2023-04-15T02:14:12;7.05;;;3.10;;
76292;SDS011;67256;51.154;4.164;2023-04-15T02:16:38;5.07;;;3.20;;
76292;SDS011;67256;51.154;4.164;2023-04-15T02:19:04;5.53;;;3.25;;
76292;SDS011;67256;51.154;4.164;2023-04-15T02:21:30;4.40;;;2.95;;
76292;SDS011;67256;51.154;4.164;2023-04-15T02:23:56;4.60;;;3.35;;
76292;SDS011;67256;51.154;4.164;2023-04-15T02:26:22;5.35;;;3.70;;
76292;SDS011;67256;51.154;4.164;2023-04-15T02:28:49;5.15;;;3.53;;
76292;SDS011;67256;51.154;4.164;2023-04-15T02:31:18;3.87;;;3.00;;
76292;SDS011;67256;51.154;4.164;2023-04-15T02:33:45;9.23;;;3.35;;
76292;SDS011;67256;51.154;4.164;2023-04-15T02:36:10;6.88;;;3.35;;
76292;SDS011;67256;51.154;4.164;2023-04-15T02:38:36;5.35;;;3.25;;
76292;SDS011;67256;51.154;4.164;2023-04-15T02:41:04;3.38;;;2.80;;
76292;SDS011;67256;51.154;4.164;2023-04-15T02:43:30;5.80;;;3.13;;
76292;SDS011;67256;51.154;4.164;2023-04-15T02:45:56;5.65;;;3.22;;
76292;SDS011;67256;51.154;4.164;2023-04-15T02:48:21;8.30;;;3.58;;
76292;SDS011;67256;51.154;4.164;2023-04-15T02:50:47;4.57;;;3.47;;
76292;SDS011;67256;51.154;4.164;2023-04-15T02:53:13;4.80;;;3.55;;
76292;SDS011;67256;51.154;4.164;2023-04-15T02:55:38;4.43;;;3.17;;
76292;SDS011;67256;51.154;4.164;2023-04-15T02:58:04;6.18;;;3.95;;
76292;SDS011;67256;51.154;4.164;2023-04-15T03:00:31;8.02;;;3.60;;
76292;SDS011;67256;51.154;4.164;2023-04-15T03:03:01;5.25;;;3.65;;
76292;SDS011;67256;51.154;4.164;2023-04-15T03:05:28;5.03;;;3.53;;
76292;SDS011;67256;51.154;4.164;2023-04-15T03:07:55;5.50;;;3.67;;
76292;SDS011;67256;51.154;4.164;2023-04-15T03:10:20;6.05;;;3.80;;
76292;SDS011;67256;51.154;4.164;2023-04-15T03:12:47;7.80;;;3.70;;
76292;SDS011;67256;51.154;4.164;2023-04-15T03:15:13;8.23;;;3.70;;
76292;SDS011;67256;51.154;4.164;2023-04-15T03:17:39;7.22;;;3.90;;
76292;SDS011;67256;51.154;4.164;2023-04-15T03:20:05;5.25;;;3.33;;
76292;SDS011;67256;51.154;4.164;2023-04-15T03:22:31;5.28;;;3.22;;
76292;SDS011;67256;51.154;4.164;2023-04-15T03:24:57;5.78;;;3.35;;
76292;SDS011;67256;51.154;4.164;2023-04-15T03:27:23;10.85;;;4.53;;
76292;SDS011;67256;51.154;4.164;2023-04-15T03:29:49;5.53;;;3.30;;
76292;SDS011;67256;51.154;4.164;2023-04-15T03:32:15;5.00;;;3.60;;
76292;SDS011;67256;51.154;4.164;2023-04-15T03:34:42;8.45;;;3.70;;
76292;SDS011;67256;51.154;4.164;2023-04-15T03:37:07;6.78;;;3.13;;
76292;SDS011;67256;51.154;4.164;2023-04-15T03:39:33;7.80;;;3.80;;
76292;SDS011;67256;51.154;4.164;2023-04-15T03:42:00;7.18;;;3.67;;
76292;SDS011;67256;51.154;4.164;2023-04-15T03:44:27;5.57;;;3.80;;
76292;SDS011;67256;51.154;4.164;2023-04-15T03:46:53;5.28;;;3.67;;
76292;SDS011;67256;51.154;4.164;2023-04-15T03:49:19;10.90;;;4.57;;
76292;SDS011;67256;51.154;4.164;2023-04-15T03:51:47;8.75;;;4.20;;
76292;SDS011;67256;51.154;4.164;2023-04-15T03:54:12;9.32;;;5.20;;
76292;SDS011;67256;51.154;4.164;2023-04-15T03:56:39;9.32;;;4.07;;
76292;SDS011;67256;51.154;4.164;2023-04-15T03:59:05;5.10;;;3.72;;
76292;SDS011;67256;51.154;4.164;2023-04-15T04:01:31;6.82;;;4.22;;
76292;SDS011;67256;51.154;4.164;2023-04-15T04:03:56;9.90;;;4.78;;
76292;SDS011;67256;51.154;4.164;2023-04-15T04:06:22;11.05;;;4.95;;
76292;SDS011;67256;51.154;4.164;2023-04-15T04:08:48;6.95;;;4.07;;
76292;SDS011;67256;51.154;4.164;2023-04-15T04:11:14;9.68;;;4.30;;
76292;SDS011;67256;51.154;4.164;2023-04-15T04:13:40;7.75;;;4.15;;
76292;SDS011;67256;51.154;4.164;2023-04-15T04:16:05;9.82;;;4.82;;
76292;SDS011;67256;51.154;4.164;2023-04-15T04:18:31;5.88;;;4.18;;
76292;SDS011;67256;51.154;4.164;2023-04-15T04:20:58;8.85;;;4.25;;
76292;SDS011;67256;51.154;4.164;2023-04-15T04:23:24;8.90;;;4.13;;
76292;SDS011;67256;51.154;4.164;2023-04-15T04:25:50;10.68;;;4.82;;
76292;SDS011;67256;51.154;4.164;2023-04-15T04:28:18;9.25;;;4.63;;
76292;SDS011;67256;51.154;4.164;2023-04-15T04:30:43;9.15;;;4.15;;
76292;SDS011;67256;51.154;4.164;2023-04-15T04:33:09;6.90;;;4.30;;
76292;SDS011;67256;51.154;4.164;2023-04-15T04:35:35;9.55;;;4.63;;
76292;SDS011;67256;51.154;4.164;2023-04-15T04:38:02;8.00;;;4.32;;
76292;SDS011;67256;51.154;4.164;2023-04-15T04:40:28;16.33;;;5.15;;
76292;SDS011;67256;51.154;4.164;2023-04-15T04:42:54;9.00;;;4.43;;
76292;SDS011;67256;51.154;4.164;2023-04-15T04:45:19;6.93;;;4.18;;
76292;SDS011;67256;51.154;4.164;2023-04-15T04:47:45;13.25;;;4.93;;
76292;SDS011;67256;51.154;4.164;2023-04-15T04:50:11;10.20;;;4.80;;
76292;SDS011;67256;51.154;4.164;2023-04-15T04:52:37;8.65;;;4.28;;
76292;SDS011;67256;51.154;4.164;2023-04-15T04:55:03;7.85;;;4.50;;
76292;SDS011;67256;51.154;4.164;2023-04-15T04:57:29;13.30;;;3.83;;
76292;SDS011;67256;51.154;4.164;2023-04-15T04:59:55;12.18;;;5.07;;
76292;SDS011;67256;51.154;4.164;2023-04-15T05:02:21;8.10;;;3.58;;
76292;SDS011;67256;51.154;4.164;2023-04-15T05:04:47;7.85;;;5.03;;
76292;SDS011;67256;51.154;4.164;2023-04-15T05:07:16;10.48;;;4.47;;
76292;SDS011;67256;51.154;4.164;2023-04-15T05:09:42;9.48;;;3.90;;
76292;SDS011;67256;51.154;4.164;2023-04-15T05:12:08;10.73;;;4.65;;
76292;SDS011;67256;51.154;4.164;2023-04-15T05:14:38;9.73;;;4.18;;
76292;SDS011;67256;51.154;4.164;2023-04-15T05:17:07;9.43;;;4.35;;
76292;SDS011;67256;51.154;4.164;2023-04-15T05:19:33;15.45;;;4.60;;
76292;SDS011;67256;51.154;4.164;2023-04-15T05:21:59;10.45;;;5.20;;
76292;SDS011;67256;51.154;4.164;2023-04-15T05:24:25;12.35;;;5.30;;
76292;SDS011;67256;51.154;4.164;2023-04-15T05:26:51;9.02;;;5.00;;
76292;SDS011;67256;51.154;4.164;2023-04-15T05:29:16;12.85;;;5.47;;
76292;SDS011;67256;51.154;4.164;2023-04-15T05:31:42;10.43;;;5.57;;
76292;SDS011;67256;51.154;4.164;2023-04-15T05:34:08;10.68;;;5.78;;
76292;SDS011;67256;51.154;4.164;2023-04-15T05:36:35;11.63;;;5.82;;
76292;SDS011;67256;51.154;4.164;2023-04-15T05:39:01;11.77;;;5.57;;
76292;SDS011;67256;51.154;4.164;2023-04-15T05:41:28;9.10;;;5.47;;
76292;SDS011;67256;51.154;4.164;2023-04-15T05:43:53;11.13;;;5.18;;
76292;SDS011;67256;51.154;4.164;2023-04-15T05:46:19;11.32;;;5.72;;
76292;SDS011;67256;51.154;4.164;2023-04-15T05:48:46;10.35;;;5.38;;
76292;SDS011;67256;51.154;4.164;2023-04-15T05:51:12;12.02;;;5.40;;
76292;SDS011;67256;51.154;4.164;2023-04-15T05:53:38;8.85;;;5.93;;
76292;SDS011;67256;51.154;4.164;2023-04-15T05:56:06;11.52;;;5.75;;
76292;SDS011;67256;51.154;4.164;2023-04-15T05:58:31;12.18;;;5.63;;
76292;SDS011;67256;51.154;4.164;2023-04-15T06:00:57;10.00;;;6.57;;
76292;SDS011;67256;51.154;4.164;2023-04-15T06:03:23;11.98;;;6.60;;
76292;SDS011;67256;51.154;4.164;2023-04-15T06:05:49;14.65;;;6.20;;
76292;SDS011;67256;51.154;4.164;2023-04-15T06:08:15;9.55;;;5.45;;
76292;SDS011;67256;51.154;4.164;2023-04-15T06:10:41;17.80;;;5.82;;
76292;SDS011;67256;51.154;4.164;2023-04-15T06:13:07;11.10;;;5.53;;
76292;SDS011;67256;51.154;4.164;2023-04-15T06:15:32;12.43;;;5.32;;
76292;SDS011;67256;51.154;4.164;2023-04-15T06:17:58;15.30;;;6.05;;
76292;SDS011;67256;51.154;4.164;2023-04-15T06:20:24;11.73;;;6.00;;
76292;SDS011;67256;51.154;4.164;2023-04-15T06:22:50;9.40;;;5.65;;
76292;SDS011;67256;51.154;4.164;2023-04-15T06:25:16;11.23;;;5.95;;
76292;SDS011;67256;51.154;4.164;2023-04-15T06:27:42;10.35;;;5.55;;
76292;SDS011;67256;51.154;4.164;2023-04-15T06:30:08;11.10;;;6.00;;
76292;SDS011;67256;51.154;4.164;2023-04-15T06:32:34;13.80;;;6.82;;
76292;SDS011;67256;51.154;4.164;2023-04-15T06:35:00;13.77;;;6.68;;
76292;SDS011;67256;51.154;4.164;2023-04-15T06:37:26;15.20;;;7.50;;
76292;SDS011;67256;51.154;4.164;2023-04-15T06:39:52;13.70;;;8.15;;
76292;SDS011;67256;51.154;4.164;2023-04-15T06:42:17;10.75;;;6.82;;
76292;SDS011;67256;51.154;4.164;2023-04-15T06:44:43;13.60;;;8.43;;
76292;SDS011;67256;51.154;4.164;2023-04-15T06:47:09;15.00;;;10.27;;
76292;SDS011;67256;51.154;4.164;2023-04-15T06:49:37;17.35;;;9.48;;
76292;SDS011;67256;51.154;4.164;2023-04-15T06:52:04;20.80;;;10.18;;
76292;SDS011;67256;51.154;4.164;2023-04-15T06:54:30;13.38;;;9.80;;
76292;SDS011;67256;51.154;4.164;2023-04-15T06:56:55;17.00;;;11.43;;
76292;SDS011;67256;51.154;4.164;2023-04-15T06:59:21;21.55;;;11.35;;
76292;SDS011;67256;51.154;4.164;2023-04-15T07:01:48;17.88;;;10.98;;
76292;SDS011;67256;51.154;4.164;2023-04-15T07:04:13;15.88;;;9.65;;
76292;SDS011;67256;51.154;4.164;2023-04-15T07:06:39;14.63;;;11.10;;
76292;SDS011;67256;51.154;4.164;2023-04-15T07:09:06;15.70;;;10.68;;
76292;SDS011;67256;51.154;4.164;2023-04-15T07:11:32;19.00;;;11.50;;
76292;SDS011;67256;51.154;4.164;2023-04-15T07:13:58;18.77;;;11.75;;
76292;SDS011;67256;51.154;4.164;2023-04-15T07:16:24;20.58;;;11.23;;
76292;SDS011;67256;51.154;4.164;2023-04-15T07:18:50;19.77;;;10.88;;
76292;SDS011;67256;51.154;4.164;2023-04-15T07:21:15;15.93;;;11.00;;
76292;SDS011;67256;51.154;4.164;2023-04-15T07:23:41;16.60;;;10.93;;
76292;SDS011;67256;51.154;4.164;2023-04-15T07:26:07;18.98;;;10.95;;
76292;SDS011;67256;51.154;4.164;2023-04-15T07:28:33;19.10;;;11.30;;
76292;SDS011;67256;51.154;4.164;2023-04-15T07:30:59;16.38;;;11.32;;
76292;SDS011;67256;51.154;4.164;2023-04-15T07:33:25;19.67;;;11.50;;
76292;SDS011;67256;51.154;4.164;2023-04-15T07:35:50;15.60;;;11.63;;
76292;SDS011;67256;51.154;4.164;2023-04-15T07:38:16;19.50;;;10.32;;
76292;SDS011;67256;51.154;4.164;2023-04-15T07:40:42;20.88;;;11.75;;
76292;SDS011;67256;51.154;4.164;2023-04-15T07:43:08;16.58;;;10.90;;
76292;SDS011;67256;51.154;4.164;2023-04-15T07:45:34;17.95;;;11.18;;
76292;SDS011;67256;51.154;4.164;2023-04-15T07:48:01;18.10;;;11.45;;
76292;SDS011;67256;51.154;4.164;2023-04-15T07:50:27;24.95;;;11.65;;
76292;SDS011;67256;51.154;4.164;2023-04-15T07:52:53;13.93;;;10.57;;
76292;SDS011;67256;51.154;4.164;2023-04-15T07:55:19;19.85;;;9.82;;
76292;SDS011;67256;51.154;4.164;2023-04-15T07:57:47;14.18;;;10.10;;
76292;SDS011;67256;51.154;4.164;2023-04-15T08:00:14;16.25;;;10.38;;
76292;SDS011;67256;51.154;4.164;2023-04-15T08:02:40;16.73;;;10.23;;
76292;SDS011;67256;51.154;4.164;2023-04-15T08:05:07;14.98;;;10.48;;
76292;SDS011;67256;51.154;4.164;2023-04-15T08:07:35;14.13;;;9.18;;
76292;SDS011;67256;51.154;4.164;2023-04-15T08:10:02;15.27;;;9.23;;
76292;SDS011;67256;51.154;4.164;2023-04-15T08:12:28;16.15;;;8.57;;
76292;SDS011;67256;51.154;4.164;2023-04-15T08:14:54;14.23;;;8.80;;
76292;SDS011;67256;51.154;4.164;2023-04-15T08:17:20;19.10;;;9.00;;
76292;SDS011;67256;51.154;4.164;2023-04-15T08:19:46;16.52;;;9.52;;
76292;SDS011;67256;51.154;4.164;2023-04-15T08:22:13;14.85;;;9.55;;
76292;SDS011;67256;51.154;4.164;2023-04-15T08:24:39;12.35;;;8.85;;
76292;SDS011;67256;51.154;4.164;2023-04-15T08:27:04;13.55;;;9.95;;
76292;SDS011;67256;51.154;4.164;2023-04-15T08:29:32;14.90;;;7.88;;
76292;SDS011;67256;51.154;4.164;2023-04-15T08:31:58;14.57;;;8.50;;
76292;SDS011;67256;51.154;4.164;2023-04-15T08:34:25;11.75;;;8.38;;
76292;SDS011;67256;51.154;4.164;2023-04-15T08:36:51;14.38;;;9.23;;
76292;SDS011;67256;51.154;4.164;2023-04-15T08:39:17;9.73;;;7.93;;
76292;SDS011;67256;51.154;4.164;2023-04-15T08:41:47;12.20;;;8.10;;
76292;SDS011;67256;51.154;4.164;2023-04-15T08:44:22;16.23;;;8.98;;
76292;SDS011;67256;51.154;4.164;2023-04-15T08:46:48;11.25;;;7.95;;
76292;SDS011;67256;51.154;4.164;2023-04-15T08:49:15;11.07;;;7.75;;
76292;SDS011;67256;51.154;4.164;2023-04-15T08:51:43;12.98;;;7.53;;
76292;SDS011;67256;51.154;4.164;2023-04-15T08:54:09;11.93;;;7.00;;
76292;SDS011;67256;51.154;4.164;2023-04-15T08:56:37;12.07;;;7.20;;
76292;SDS011;67256;51.154;4.164;2023-04-15T08:59:03;12.75;;;8.38;;
76292;SDS011;67256;51.154;4.164;2023-04-15T09:01:30;12.13;;;8.48;;
76292;SDS011;67256;51.154;4.164;2023-04-15T09:03:57;10.63;;;8.38;;
76292;SDS011;67256;51.154;4.164;2023-04-15T09:06:23;11.13;;;7.68;;
76292;SDS011;67256;51.154;4.164;2023-04-15T09:08:50;10.65;;;7.50;;
76292;SDS011;67256;51.154;4.164;2023-04-15T09:11:17;10.32;;;7.28;;
76292;SDS011;67256;51.154;4.164;2023-04-15T09:13:43;8.45;;;5.75;;
76292;SDS011;67256;51.154;4.164;2023-04-15T09:16:09;9.90;;;4.65;;
76292;SDS011;67256;51.154;4.164;2023-04-15T09:18:37;8.07;;;4.78;;
76292;SDS011;67256;51.154;4.164;2023-04-15T09:21:03;12.45;;;5.68;;
76292;SDS011;67256;51.154;4.164;2023-04-15T09:23:31;9.07;;;5.65;;
76292;SDS011;67256;51.154;4.164;2023-04-15T09:25:58;9.38;;;5.63;;
76292;SDS011;67256;51.154;4.164;2023-04-15T09:28:24;9.23;;;6.50;;
76292;SDS011;67256;51.154;4.164;2023-04-15T09:30:56;9.50;;;5.33;;
76292;SDS011;67256;51.154;4.164;2023-04-15T09:33:25;6.57;;;4.40;;
76292;SDS011;67256;51.154;4.164;2023-04-15T09:35:56;6.10;;;3.83;;
76292;SDS011;67256;51.154;4.164;2023-04-15T09:38:26;7.55;;;4.30;;
76292;SDS011;67256;51.154;4.164;2023-04-15T09:40:52;8.98;;;4.78;;
76292;SDS011;67256;51.154;4.164;2023-04-15T09:43:18;7.20;;;5.00;;
76292;SDS011;67256;51.154;4.164;2023-04-15T09:45:51;8.30;;;5.28;;
76292;SDS011;67256;51.154;4.164;2023-04-15T09:48:22;17.45;;;6.03;;
76292;SDS011;67256;51.154;4.164;2023-04-15T09:50:52;9.43;;;5.93;;
76292;SDS011;67256;51.154;4.164;2023-04-15T09:53:19;7.18;;;5.43;;
76292;SDS011;67256;51.154;4.164;2023-04-15T09:55:49;6.70;;;4.95;;
76292;SDS011;67256;51.154;4.164;2023-04-15T09:58:19;8.10;;;4.38;;
76292;SDS011;67256;51.154;4.164;2023-04-15T10:00:47;8.65;;;4.40;;
76292;SDS011;67256;51.154;4.164;2023-04-15T10:03:16;6.22;;;4.25;;
76292;SDS011;67256;51.154;4.164;2023-04-15T10:05:47;6.30;;;4.28;;
76292;SDS011;67256;51.154;4.164;2023-04-15T10:08:15;6.07;;;3.85;;
76292;SDS011;67256;51.154;4.164;2023-04-15T10:10:43;4.80;;;2.95;;
76292;SDS011;67256;51.154;4.164;2023-04-15T10:13:12;5.57;;;2.90;;
76292;SDS011;67256;51.154;4.164;2023-04-15T10:15:56;5.13;;;3.08;;
76292;SDS011;67256;51.154;4.164;2023-04-15T10:18:31;4.68;;;3.15;;
76292;SDS011;67256;51.154;4.164;2023-04-15T10:21:00;7.25;;;3.78;;
76292;SDS011;67256;51.154;4.164;2023-04-15T10:23:26;7.57;;;3.35;;
76292;SDS011;67256;51.154;4.164;2023-04-15T10:25:52;7.13;;;3.95;;
76292;SDS011;67256;51.154;4.164;2023-04-15T10:28:19;7.32;;;4.03;;
76292;SDS011;67256;51.154;4.164;2023-04-15T10:33:21;5.07;;;3.35;;
76292;SDS011;67256;51.154;4.164;2023-04-15T10:35:49;8.65;;;4.20;;
76292;SDS011;67256;51.154;4.164;2023-04-15T10:43:37;10.75;;;3.22;;
76292;SDS011;67256;51.154;4.164;2023-04-15T10:46:04;4.70;;;2.85;;
76292;SDS011;67256;51.154;4.164;2023-04-15T10:48:30;5.38;;;3.42;;
76292;SDS011;67256;51.154;4.164;2023-04-15T10:50:57;4.00;;;2.50;;
76292;SDS011;67256;51.154;4.164;2023-04-15T10:53:28;4.25;;;2.50;;
76292;SDS011;67256;51.154;4.164;2023-04-15T10:55:56;4.60;;;2.72;;
76292;SDS011;67256;51.154;4.164;2023-04-15T10:58:22;5.40;;;3.17;;
76292;SDS011;67256;51.154;4.164;2023-04-15T11:00:50;4.95;;;2.83;;
76292;SDS011;67256;51.154;4.164;2023-04-15T11:03:21;5.20;;;2.78;;
76292;SDS011;67256;51.154;4.164;2023-04-15T11:06:03;4.55;;;3.47;;
76292;SDS011;67256;51.154;4.164;2023-04-15T11:11:17;5.38;;;3.53;;
76292;SDS011;67256;51.154;4.164;2023-04-15T11:13:49;4.45;;;3.17;;
76292;SDS011;67256;51.154;4.164;2023-04-15T11:16:16;5.55;;;3.42;;
76292;SDS011;67256;51.154;4.164;2023-04-15T11:18:42;5.22;;;2.42;;
76292;SDS011;67256;51.154;4.164;2023-04-15T11:21:18;7.90;;;3.47;;
76292;SDS011;67256;51.154;4.164;2023-04-15T11:23:48;6.00;;;3.25;;
76292;SDS011;67256;51.154;4.164;2023-04-15T11:26:15;7.07;;;3.60;;
76292;SDS011;67256;51.154;4.164;2023-04-15T11:28:43;4.80;;;2.42;;
76292;SDS011;67256;51.154;4.164;2023-04-15T11:31:14;3.88;;;3.45;;
76292;SDS011;67256;51.154;4.164;2023-04-15T11:33:57;12.82;;;3.72;;
76292;SDS011;67256;51.154;4.164;2023-04-15T11:36:27;8.73;;;3.72;;
76292;SDS011;67256;51.154;4.164;2023-04-15T11:38:56;5.63;;;3.45;;
76292;SDS011;67256;51.154;4.164;2023-04-15T11:41:23;6.60;;;3.95;;
76292;SDS011;67256;51.154;4.164;2023-04-15T11:43:49;6.25;;;3.67;;
76292;SDS011;67256;51.154;4.164;2023-04-15T11:46:16;7.07;;;3.72;;
76292;SDS011;67256;51.154;4.164;2023-04-15T11:48:43;4.22;;;2.33;;
76292;SDS011;67256;51.154;4.164;2023-04-15T11:51:11;5.10;;;3.22;;
76292;SDS011;67256;51.154;4.164;2023-04-15T11:56:16;5.20;;;2.90;;
76292;SDS011;67256;51.154;4.164;2023-04-15T11:58:56;8.20;;;3.20;;
76292;SDS011;67256;51.154;4.164;2023-04-15T12:01:32;4.20;;;2.83;;
76292;SDS011;67256;51.154;4.164;2023-04-15T12:03:59;5.57;;;2.90;;
76292;SDS011;67256;51.154;4.164;2023-04-15T12:06:30;7.65;;;3.55;;
76292;SDS011;67256;51.154;4.164;2023-04-15T12:11:55;8.35;;;4.45;;
76292;SDS011;67256;51.154;4.164;2023-04-15T12:17:02;8.15;;;4.70;;
76292;SDS011;67256;51.154;4.164;2023-04-15T12:19:29;7.28;;;4.20;;
76292;SDS011;67256;51.154;4.164;2023-04-15T12:22:00;7.18;;;3.70;;
76292;SDS011;67256;51.154;4.164;2023-04-15T12:24:30;6.68;;;3.72;;
76292;SDS011;67256;51.154;4.164;2023-04-15T12:27:06;8.02;;;4.25;;
76292;SDS011;67256;51.154;4.164;2023-04-15T12:29:35;6.30;;;3.53;;
76292;SDS011;67256;51.154;4.164;2023-04-15T12:32:03;5.03;;;3.28;;
76292;SDS011;67256;51.154;4.164;2023-04-15T12:34:30;6.38;;;2.75;;
76292;SDS011;67256;51.154;4.164;2023-04-15T12:36:59;4.63;;;2.10;;
76292;SDS011;67256;51.154;4.164;2023-04-15T12:39:26;6.07;;;2.60;;
76292;SDS011;67256;51.154;4.164;2023-04-15T12:41:58;8.65;;;2.97;;
76292;SDS011;67256;51.154;4.164;2023-04-15T12:44:25;6.25;;;3.00;;
76292;SDS011;67256;51.154;4.164;2023-04-15T12:46:52;5.88;;;3.17;;
76292;SDS011;67256;51.154;4.164;2023-04-15T12:49:19;7.78;;;2.92;;
76292;SDS011;67256;51.154;4.164;2023-04-15T12:51:49;11.20;;;3.25;;
76292;SDS011;67256;51.154;4.164;2023-04-15T12:54:17;7.45;;;3.10;;
76292;SDS011;67256;51.154;4.164;2023-04-15T12:56:43;7.07;;;3.03;;
76292;SDS011;67256;51.154;4.164;2023-04-15T12:59:10;6.78;;;2.38;;
76292;SDS011;67256;51.154;4.164;2023-04-15T13:01:37;6.13;;;2.53;;
76292;SDS011;67256;51.154;4.164;2023-04-15T13:04:03;3.65;;;2.38;;
76292;SDS011;67256;51.154;4.164;2023-04-15T13:06:29;6.55;;;2.85;;
76292;SDS011;67256;51.154;4.164;2023-04-15T13:08:57;5.50;;;2.45;;
76292;SDS011;67256;51.154;4.164;2023-04-15T13:11:23;6.85;;;3.55;;
76292;SDS011;67256;51.154;4.164;2023-04-15T13:13:50;5.00;;;2.88;;
76292;SDS011;67256;51.154;4.164;2023-04-15T13:16:19;4.93;;;2.38;;
76292;SDS011;67256;51.154;4.164;2023-04-15T13:18:45;2.70;;;1.30;;
76292;SDS011;67256;51.154;4.164;2023-04-15T13:21:12;3.35;;;1.45;;
76292;SDS011;67256;51.154;4.164;2023-04-15T13:23:39;3.00;;;1.02;;
76292;SDS011;67256;51.154;4.164;2023-04-15T13:26:05;6.32;;;1.50;;
76292;SDS011;67256;51.154;4.164;2023-04-15T13:28:32;2.35;;;1.42;;
76292;SDS011;67256;51.154;4.164;2023-04-15T13:30:58;6.25;;;1.80;;
76292;SDS011;67256;51.154;4.164;2023-04-15T13:33:24;7.50;;;1.90;;
76292;SDS011;67256;51.154;4.164;2023-04-15T13:35:50;7.38;;;1.92;;
76292;SDS011;67256;51.154;4.164;2023-04-15T13:38:16;3.72;;;2.05;;
76292;SDS011;67256;51.154;4.164;2023-04-15T13:40:42;4.90;;;2.65;;
76292;SDS011;67256;51.154;4.164;2023-04-15T13:43:07;5.25;;;2.38;;
76292;SDS011;67256;51.154;4.164;2023-04-15T13:45:33;4.78;;;1.90;;
76292;SDS011;67256;51.154;4.164;2023-04-15T13:47:59;8.27;;;2.35;;
76292;SDS011;67256;51.154;4.164;2023-04-15T13:50:25;5.22;;;3.05;;
76292;SDS011;67256;51.154;4.164;2023-04-15T13:52:51;8.55;;;3.30;;
76292;SDS011;67256;51.154;4.164;2023-04-15T13:55:17;9.38;;;3.30;;
76292;SDS011;67256;51.154;4.164;2023-04-15T13:57:43;5.80;;;3.28;;
76292;SDS011;67256;51.154;4.164;2023-04-15T14:00:08;5.68;;;3.70;;
76292;SDS011;67256;51.154;4.164;2023-04-15T14:02:35;6.97;;;2.70;;
76292;SDS011;67256;51.154;4.164;2023-04-15T14:05:00;5.22;;;2.72;;
76292;SDS011;67256;51.154;4.164;2023-04-15T14:07:27;4.45;;;2.67;;
76292;SDS011;67256;51.154;4.164;2023-04-15T14:09:53;5.70;;;2.83;;
76292;SDS011;67256;51.154;4.164;2023-04-15T14:12:19;8.65;;;3.80;;
76292;SDS011;67256;51.154;4.164;2023-04-15T14:14:45;7.80;;;4.30;;
76292;SDS011;67256;51.154;4.164;2023-04-15T14:17:10;8.23;;;4.47;;
76292;SDS011;67256;51.154;4.164;2023-04-15T14:19:36;10.18;;;5.10;;
76292;SDS011;67256;51.154;4.164;2023-04-15T14:22:02;8.02;;;5.45;;
76292;SDS011;67256;51.154;4.164;2023-04-15T14:24:27;13.23;;;5.57;;
76292;SDS011;67256;51.154;4.164;2023-04-15T14:26:53;7.82;;;5.25;;
76292;SDS011;67256;51.154;4.164;2023-04-15T14:29:21;9.75;;;4.53;;
76292;SDS011;67256;51.154;4.164;2023-04-15T14:31:47;8.43;;;5.13;;
76292;SDS011;67256;51.154;4.164;2023-04-15T14:34:14;14.48;;;5.40;;
76292;SDS011;67256;51.154;4.164;2023-04-15T14:36:40;10.90;;;6.20;;
76292;SDS011;67256;51.154;4.164;2023-04-15T14:39:06;9.13;;;5.50;;
76292;SDS011;67256;51.154;4.164;2023-04-15T14:41:32;8.82;;;5.03;;
76292;SDS011;67256;51.154;4.164;2023-04-15T14:43:58;8.25;;;5.10;;
76292;SDS011;67256;51.154;4.164;2023-04-15T14:46:24;8.40;;;4.10;;
76292;SDS011;67256;51.154;4.164;2023-04-15T14:48:50;8.02;;;5.13;;
76292;SDS011;67256;51.154;4.164;2023-04-15T14:51:16;7.63;;;5.38;;
76292;SDS011;67256;51.154;4.164;2023-04-15T14:53:42;10.75;;;5.97;;
76292;SDS011;67256;51.154;4.164;2023-04-15T14:56:08;11.65;;;5.45;;
76292;SDS011;67256;51.154;4.164;2023-04-15T14:58:34;10.75;;;5.97;;
76292;SDS011;67256;51.154;4.164;2023-04-15T15:01:00;8.52;;;4.80;;